createdAt,value
2023-05-05T00:00:11.343Z,69.12
2023-05-05T00:02:38.158Z,67.96
2023-05-05T00:05:05.881Z,68.95
2023-05-05T00:07:32.610Z,70.01
2023-05-05T00:10:02.965Z,69.44
2023-05-05T00:12:29.689Z,69.13
2023-05-05T00:14:58.023Z,68.97
2023-05-05T00:17:24.957Z,68.49
2023-05-05T00:19:54.278Z,69.55
2023-05-05T00:22:20.895Z,69.60
2023-05-05T00:24:47.588Z,69.62
2023-05-05T00:27:14.267Z,70.83
2023-05-05T00:29:40.894Z,69.48
2023-05-05T00:32:12.111Z,70.36
2023-05-05T00:34:38.947Z,73.12
2023-05-05T00:37:06.016Z,69.52
2023-05-05T00:39:33.858Z,70.55
2023-05-05T00:42:02.769Z,71.07
2023-05-05T00:44:39.529Z,69.05
2023-05-05T00:47:06.649Z,69.57
2023-05-05T00:49:35.585Z,69.02
2023-05-05T00:52:06.396Z,69.03
2023-05-05T00:54:35.452Z,69.07
2023-05-05T00:57:04.741Z,71.39
2023-05-05T00:59:36.088Z,70.09
2023-05-05T01:02:05.788Z,70.87
2023-05-05T01:04:36.634Z,72.73
2023-05-05T01:07:13.465Z,71.39
2023-05-05T01:09:53.560Z,71.95
2023-05-05T01:12:37.162Z,71.00
2023-05-05T01:15:18.444Z,71.18
2023-05-05T01:17:54.885Z,71.44
2023-05-05T01:20:41.013Z,72.06
2023-05-05T01:23:22.535Z,72.18
2023-05-05T01:26:25.084Z,70.71
2023-05-05T01:29:32.669Z,73.86
2023-05-05T01:32:20.839Z,75.59
2023-05-05T01:34:56.462Z,72.02
2023-05-05T01:37:36.750Z,74.32
2023-05-05T01:40:12.280Z,72.67
2023-05-05T01:42:43.567Z,74.47
2023-05-05T01:45:20.498Z,71.69
2023-05-05T01:47:56.541Z,75.53
2023-05-05T01:50:33.491Z,72.42
2023-05-05T01:53:07.886Z,72.61
2023-05-05T01:55:52.342Z,73.08
2023-05-05T01:59:04.028Z,72.46
2023-05-05T02:01:37.538Z,73.09
2023-05-05T02:04:22.962Z,72.14
2023-05-05T02:06:59.712Z,74.34
2023-05-05T02:09:33.471Z,73.23
2023-05-05T02:12:17.507Z,73.13
2023-05-05T02:14:46.528Z,74.21
2023-05-05T02:17:31.873Z,72.55
2023-05-05T02:20:10.903Z,73.72
2023-05-05T02:22:38.063Z,74.00
2023-05-05T02:25:26.682Z,74.07
2023-05-05T02:28:01.084Z,75.23
2023-05-05T02:30:39.976Z,75.53
2023-05-05T02:33:16.904Z,76.16
2023-05-05T02:35:54.287Z,77.36
2023-05-05T02:38:53.677Z,75.91
2023-05-05T02:41:59.692Z,75.98
2023-05-05T02:44:47.120Z,75.77
2023-05-05T02:47:26.660Z,75.83
2023-05-05T02:50:16.601Z,76.18
2023-05-05T02:53:17.004Z,75.67
2023-05-05T02:56:05.542Z,75.10
2023-05-05T02:59:13.839Z,75.02
2023-05-05T03:02:10.229Z,75.78
2023-05-05T03:05:04.884Z,75.97
2023-05-05T03:07:56.204Z,75.10
2023-05-05T03:10:44.199Z,76.24
2023-05-05T03:13:27.314Z,75.80
2023-05-05T03:16:23.679Z,75.14
2023-05-05T03:19:26.735Z,76.12
2023-05-05T03:22:10.051Z,76.97
2023-05-05T03:24:57.136Z,76.83
2023-05-05T03:27:35.760Z,76.50
2023-05-05T03:30:09.597Z,75.15
2023-05-05T03:32:48.724Z,74.66
2023-05-05T03:35:22.426Z,75.80
2023-05-05T03:37:49.575Z,75.01
2023-05-05T03:40:44.811Z,76.10
2023-05-05T03:43:13.186Z,75.62
2023-05-05T03:45:40.122Z,74.90
2023-05-05T03:48:07.036Z,75.94
2023-05-05T03:50:33.763Z,75.78
2023-05-05T03:53:00.479Z,77.86
2023-05-05T03:55:27.319Z,76.45
2023-05-05T03:57:53.858Z,75.46
2023-05-05T04:00:22.003Z,77.19
2023-05-05T04:02:48.641Z,76.13
2023-05-05T04:05:18.067Z,75.69
2023-05-05T04:07:44.713Z,75.11
2023-05-05T04:10:11.270Z,75.57
2023-05-05T04:12:38.144Z,77.34
2023-05-05T04:15:05.974Z,75.34
2023-05-05T04:17:34.058Z,77.16
2023-05-05T04:20:01.285Z,76.68
2023-05-05T04:22:29.329Z,75.26
2023-05-05T04:24:56.188Z,75.46
2023-05-05T04:27:22.757Z,74.84
2023-05-05T04:29:49.229Z,74.41
2023-05-05T04:32:15.716Z,73.54
2023-05-05T04:34:44.607Z,73.66
2023-05-05T04:37:11.060Z,73.07
2023-05-05T04:39:37.503Z,73.78
2023-05-05T04:42:04.104Z,74.00
2023-05-05T04:44:30.872Z,73.20
2023-05-05T04:47:01.156Z,74.68
2023-05-05T04:49:29.373Z,72.61
2023-05-05T04:51:57.742Z,72.23
2023-05-05T04:54:24.211Z,71.57
2023-05-05T04:56:50.828Z,70.34
2023-05-05T04:59:17.553Z,71.60
2023-05-05T05:01:44.694Z,71.18
2023-05-05T05:04:11.373Z,71.87
2023-05-05T05:06:38.851Z,70.42
2023-05-05T05:09:06.660Z,70.26
2023-05-05T05:11:33.143Z,70.31
2023-05-05T05:14:00.068Z,68.25
2023-05-05T05:16:26.684Z,65.84
2023-05-05T05:18:53.190Z,62.35
2023-05-05T05:21:20.015Z,56.78
2023-05-05T05:23:46.474Z,52.37
2023-05-05T05:26:14.451Z,48.31
2023-05-05T05:28:40.844Z,44.44
2023-05-05T05:31:07.337Z,43.01
2023-05-05T05:33:33.745Z,40.70
2023-05-05T05:36:00.230Z,40.98
2023-05-05T05:38:27.355Z,41.55
2023-05-05T05:40:57.128Z,41.40
2023-05-05T05:43:25.759Z,44.59
2023-05-05T05:45:52.274Z,43.80
2023-05-05T05:48:19.888Z,41.88
2023-05-05T05:50:46.336Z,41.87
2023-05-05T05:53:12.723Z,40.66
2023-05-05T05:55:39.910Z,39.97
2023-05-05T05:58:06.778Z,39.83
2023-05-05T06:00:34.512Z,42.77
2023-05-05T06:03:06.241Z,40.28
2023-05-05T06:05:36.018Z,39.98
2023-05-05T06:08:02.538Z,43.05
2023-05-05T06:10:30.618Z,40.48
2023-05-05T06:13:02.144Z,42.18
2023-05-05T06:15:29.983Z,42.35
2023-05-05T06:17:58.129Z,44.66
2023-05-05T06:20:24.668Z,42.64
2023-05-05T06:22:51.063Z,41.84
2023-05-05T06:25:17.629Z,43.25
2023-05-05T06:27:44.771Z,41.80
2023-05-05T06:30:11.976Z,45.34
2023-05-05T06:32:38.477Z,42.76
2023-05-05T06:35:07.654Z,42.34
2023-05-05T06:37:34.058Z,42.91
2023-05-05T06:40:00.510Z,43.07
2023-05-05T06:42:26.928Z,40.58
2023-05-05T06:44:53.529Z,40.87
2023-05-05T06:47:20.369Z,40.77
2023-05-05T06:49:46.831Z,41.37
2023-05-05T06:52:14.569Z,41.52
2023-05-05T06:54:40.982Z,39.92
2023-05-05T06:57:07.352Z,41.38
2023-05-05T06:59:33.796Z,40.60
2023-05-05T07:02:00.335Z,39.12
2023-05-05T07:04:26.749Z,39.55
2023-05-05T07:06:53.417Z,38.68
2023-05-05T07:09:21.344Z,38.88
2023-05-05T07:11:47.723Z,39.61
2023-05-05T07:14:14.123Z,39.20
2023-05-05T07:16:40.650Z,42.12
2023-05-05T07:19:07.100Z,40.44
2023-05-05T07:21:34.150Z,38.52
2023-05-05T07:24:00.844Z,39.12
2023-05-05T07:26:28.661Z,41.05
2023-05-05T07:28:55.104Z,38.56
2023-05-05T07:31:21.566Z,39.47
2023-05-05T07:33:48.020Z,39.30
2023-05-05T07:36:14.462Z,39.99
2023-05-05T07:38:40.838Z,39.81
2023-05-05T07:41:07.246Z,38.98
2023-05-05T07:43:35.013Z,38.65
2023-05-05T07:46:01.508Z,39.35
2023-05-05T07:48:27.975Z,42.25
2023-05-05T07:50:54.394Z,39.43
2023-05-05T07:53:20.789Z,39.03
2023-05-05T07:55:47.308Z,38.55
2023-05-05T07:58:13.714Z,38.64
2023-05-05T08:00:41.530Z,39.38
2023-05-05T08:03:10.707Z,39.99
2023-05-05T08:05:38.486Z,38.36
2023-05-05T08:08:05.295Z,38.17
2023-05-05T08:10:31.728Z,37.54
2023-05-05T08:12:58.176Z,38.17
2023-05-05T08:15:24.625Z,39.33
2023-05-05T08:17:53.234Z,37.82
2023-05-05T08:20:20.769Z,38.44
2023-05-05T08:22:47.785Z,35.92
2023-05-05T08:25:14.636Z,36.46
2023-05-05T08:27:42.160Z,38.58
2023-05-05T08:30:10.061Z,39.40
2023-05-05T08:32:36.493Z,39.27
2023-05-05T08:35:05.593Z,37.21
2023-05-05T08:37:32.230Z,37.81
2023-05-05T08:39:58.771Z,38.42
2023-05-05T08:42:36.321Z,35.12
2023-05-05T08:45:05.735Z,37.30
2023-05-05T08:47:32.638Z,35.82
2023-05-05T08:49:59.949Z,38.89
2023-05-05T08:52:33.274Z,41.40
2023-05-05T08:55:05.713Z,38.73
2023-05-05T08:57:39.255Z,37.37
2023-05-05T09:00:10.667Z,36.51
2023-05-05T09:02:37.709Z,38.63
2023-05-05T09:05:06.827Z,35.88
2023-05-05T09:07:34.980Z,35.60
2023-05-05T09:10:04.249Z,35.37
2023-05-05T09:12:31.376Z,34.27
2023-05-05T09:14:59.317Z,34.68
2023-05-05T09:17:26.588Z,33.99
2023-05-05T09:20:01.207Z,37.13
2023-05-05T09:22:39.624Z,36.04
2023-05-05T09:25:07.689Z,33.63
2023-05-05T09:27:37.893Z,32.32
2023-05-05T09:30:05.454Z,31.99
2023-05-05T09:32:43.315Z,32.86
2023-05-05T09:35:09.955Z,37.31
2023-05-05T09:37:37.790Z,34.43
2023-05-05T09:40:05.476Z,32.48
2023-05-05T09:42:31.937Z,30.41
2023-05-05T09:44:59.913Z,30.65
2023-05-05T09:47:34.950Z,31.13
2023-05-05T09:50:01.953Z,29.98
2023-05-05T09:52:28.604Z,28.95
2023-05-05T09:54:57.078Z,28.85
2023-05-05T09:57:28.443Z,27.89
2023-05-05T09:59:55.910Z,29.06
2023-05-05T10:02:30.775Z,27.01
2023-05-05T10:05:09.377Z,28.13
2023-05-05T10:07:36.678Z,29.99
2023-05-05T10:10:06.657Z,29.56
2023-05-05T10:12:35.252Z,25.79
2023-05-05T10:15:02.613Z,25.79
2023-05-05T10:17:31.547Z,28.48
2023-05-05T10:20:00.339Z,28.98
2023-05-05T10:22:29.002Z,28.84
2023-05-05T10:25:01.573Z,29.64
2023-05-05T10:27:38.827Z,28.18
2023-05-05T10:30:07.035Z,28.98
2023-05-05T10:32:53.883Z,28.31
2023-05-05T10:35:25.006Z,29.31
2023-05-05T10:41:14.638Z,32.98
2023-05-05T10:51:08.713Z,32.29
2023-05-05T10:53:44.472Z,29.14
2023-05-05T10:56:17.105Z,32.32
2023-05-05T10:58:59.212Z,30.05
2023-05-05T11:01:31.963Z,29.85
2023-05-05T11:04:16.565Z,29.06
2023-05-05T11:07:16.496Z,27.94
2023-05-05T11:09:55.329Z,28.49
2023-05-05T11:12:24.140Z,30.09
2023-05-05T11:15:28.377Z,28.11
2023-05-05T11:17:57.075Z,27.92
2023-05-05T11:20:56.866Z,29.74
2023-05-05T11:23:26.084Z,30.29
2023-05-05T11:25:53.416Z,31.17
2023-05-05T11:28:21.257Z,28.53
2023-05-05T11:31:18.781Z,29.14
2023-05-05T11:33:47.034Z,30.72
2023-05-05T11:36:15.378Z,31.79
2023-05-05T11:38:52.616Z,29.35
2023-05-05T11:41:30.543Z,31.49
2023-05-05T11:44:09.247Z,31.03
2023-05-05T11:46:35.986Z,32.32
2023-05-05T11:49:03.978Z,31.88
2023-05-05T11:51:31.606Z,31.71
2023-05-05T11:53:59.277Z,31.46
2023-05-05T11:56:25.986Z,32.84
2023-05-05T11:59:07.553Z,32.51
2023-05-05T12:01:34.703Z,33.12
2023-05-05T12:04:05.060Z,32.10
2023-05-05T12:06:32.601Z,32.33
2023-05-05T12:08:59.645Z,31.23
2023-05-05T12:11:26.378Z,31.24
2023-05-05T12:14:07.683Z,32.25
2023-05-05T12:16:37.037Z,32.46
2023-05-05T12:19:06.170Z,31.64
2023-05-05T12:21:32.973Z,31.09
2023-05-05T12:24:00.009Z,32.50
2023-05-05T12:26:27.438Z,31.85
2023-05-05T12:29:02.780Z,31.44
2023-05-05T12:31:36.654Z,30.56
2023-05-05T12:34:06.220Z,31.89
2023-05-05T12:36:33.381Z,32.29
2023-05-05T12:39:00.274Z,32.84
2023-05-05T12:41:27.641Z,31.51
2023-05-05T12:43:54.896Z,31.42
2023-05-05T12:46:23.043Z,31.01
2023-05-05T12:49:06.125Z,30.86
2023-05-05T12:51:37.016Z,30.27
2023-05-05T12:54:05.405Z,31.52
2023-05-05T12:56:34.128Z,29.49
2023-05-05T12:59:04.850Z,31.71
2023-05-05T13:01:32.230Z,28.79
2023-05-05T13:04:12.060Z,28.19
2023-05-05T13:06:41.279Z,29.80
2023-05-05T13:09:23.135Z,29.61
2023-05-05T13:11:49.963Z,28.74
2023-05-05T13:14:37.295Z,29.96
2023-05-05T13:17:16.067Z,29.45
2023-05-05T13:20:00.569Z,31.45
2023-05-05T13:26:13.217Z,32.36
2023-05-05T13:32:04.969Z,29.22
2023-05-05T13:34:55.616Z,32.86
2023-05-05T13:44:02.647Z,29.58
2023-05-05T13:46:31.689Z,31.96
2023-05-05T13:48:58.485Z,29.31
2023-05-05T13:51:27.614Z,30.96
2023-05-05T13:57:38.315Z,31.12
2023-05-05T14:00:32.198Z,34.83
2023-05-05T14:03:20.753Z,31.16
2023-05-05T14:08:54.934Z,31.79
2023-05-05T14:11:29.802Z,29.11
2023-05-05T14:14:19.409Z,32.10
2023-05-05T14:31:19.661Z,32.02
2023-05-05T14:33:48.518Z,32.28
2023-05-05T14:36:32.919Z,31.61
2023-05-05T14:39:03.166Z,31.97
2023-05-05T14:41:29.987Z,31.81
2023-05-05T14:44:00.874Z,31.18
2023-05-05T14:46:39.692Z,33.54
2023-05-05T14:49:11.964Z,33.41
2023-05-05T14:51:41.864Z,32.75
2023-05-05T14:54:27.483Z,32.17
2023-05-05T15:01:11.103Z,33.54
2023-05-05T15:03:52.880Z,33.87
2023-05-05T15:06:33.237Z,32.34
2023-05-05T15:09:06.481Z,31.84
2023-05-05T15:11:36.800Z,34.30
2023-05-05T15:14:28.261Z,34.84
2023-05-05T15:17:14.425Z,35.07
2023-05-05T15:19:58.188Z,34.95
2023-05-05T15:22:25.437Z,33.12
2023-05-05T15:25:04.474Z,34.07
2023-05-05T15:27:37.991Z,34.54
2023-05-05T15:30:07.893Z,34.02
2023-05-05T15:32:38.740Z,34.44
2023-05-05T15:35:08.515Z,33.70
2023-05-05T15:41:24.207Z,33.64
2023-05-05T15:48:09.490Z,38.16
2023-05-05T15:51:10.203Z,35.27
2023-05-05T15:54:29.369Z,35.73
2023-05-05T15:57:09.678Z,34.85
2023-05-05T15:59:50.380Z,34.82
2023-05-05T16:02:25.504Z,34.87
2023-05-05T16:04:54.934Z,34.02
2023-05-05T16:07:26.054Z,36.47
2023-05-05T16:09:57.962Z,36.54
2023-05-05T16:12:24.661Z,35.38
2023-05-05T16:14:56.666Z,36.31
2023-05-05T16:17:32.814Z,40.47
2023-05-05T16:20:07.385Z,36.80
2023-05-05T16:22:35.761Z,35.31
2023-05-05T16:25:05.701Z,36.93
2023-05-05T16:27:32.668Z,37.13
2023-05-05T16:30:01.632Z,36.55
2023-05-05T16:32:40.960Z,39.25
2023-05-05T16:35:08.234Z,37.60
2023-05-05T16:37:38.283Z,36.87
2023-05-05T16:40:06.447Z,36.40
2023-05-05T16:42:33.162Z,37.64
2023-05-05T16:45:03.816Z,36.77
2023-05-05T16:47:30.791Z,37.29
2023-05-05T16:50:02.041Z,36.41
2023-05-05T16:52:33.787Z,36.83
2023-05-05T16:55:11.121Z,38.21
2023-05-05T16:57:44.214Z,38.42
2023-05-05T17:00:22.487Z,38.43
2023-05-05T17:02:57.301Z,38.57
2023-05-05T17:05:27.190Z,42.45
2023-05-05T17:08:02.343Z,39.14
2023-05-05T17:10:39.388Z,40.34
2023-05-05T17:13:05.890Z,40.31
2023-05-05T17:15:32.283Z,40.86
2023-05-05T17:17:58.740Z,41.50
2023-05-05T17:20:25.254Z,40.87
2023-05-05T17:22:51.664Z,42.20
2023-05-05T17:25:18.324Z,41.81
2023-05-05T17:27:45.992Z,41.00
2023-05-05T17:30:13.329Z,40.98
2023-05-05T17:32:39.825Z,41.80
2023-05-05T17:35:06.884Z,42.94
2023-05-05T17:37:33.352Z,42.30
2023-05-05T17:39:59.766Z,43.72
2023-05-05T17:42:26.125Z,41.78
2023-05-05T17:44:53.995Z,42.81
2023-05-05T17:47:20.453Z,42.87
2023-05-05T17:49:46.868Z,43.98
2023-05-05T17:52:13.301Z,42.98
2023-05-05T17:54:39.716Z,43.96
2023-05-05T17:57:06.101Z,43.63
2023-05-05T17:59:32.604Z,44.40
2023-05-05T18:02:00.285Z,43.80
2023-05-05T18:04:26.776Z,43.92
2023-05-05T18:06:54.068Z,44.04
2023-05-05T18:09:20.554Z,44.72
2023-05-05T18:11:46.946Z,44.36
2023-05-05T18:14:13.381Z,45.06
2023-05-05T18:16:39.786Z,46.32
2023-05-05T18:19:07.487Z,46.94
2023-05-05T18:21:33.993Z,49.84
2023-05-05T18:24:11.604Z,51.53
2023-05-05T18:26:47.639Z,53.14
2023-05-05T18:29:14.114Z,54.71
2023-05-05T18:31:40.581Z,56.64
2023-05-05T18:34:08.289Z,57.17
2023-05-05T18:36:34.742Z,58.68
2023-05-05T18:39:01.185Z,59.37
2023-05-05T18:41:27.606Z,60.29
2023-05-05T18:43:54.171Z,60.92
2023-05-05T18:46:20.700Z,62.27
2023-05-05T18:48:47.114Z,62.33
2023-05-05T18:51:14.935Z,63.46
2023-05-05T18:53:41.373Z,64.45
2023-05-05T18:56:07.914Z,65.78
2023-05-05T18:58:34.380Z,65.96
2023-05-05T19:01:00.824Z,66.86
2023-05-05T19:03:27.243Z,67.35
2023-05-05T19:05:53.711Z,67.63
2023-05-05T19:08:21.538Z,68.76
2023-05-05T19:10:48.007Z,67.40
2023-05-05T19:13:14.515Z,69.18
2023-05-05T19:15:41.006Z,70.56
2023-05-05T19:18:07.510Z,69.40
2023-05-05T19:20:33.947Z,70.56
2023-05-05T19:23:00.441Z,69.63
2023-05-05T19:25:28.329Z,71.63
2023-05-05T19:27:54.734Z,75.11
2023-05-05T19:30:21.623Z,80.10
2023-05-05T19:32:48.247Z,81.72
2023-05-05T19:35:14.855Z,78.63
2023-05-05T19:37:41.357Z,77.07
2023-05-05T19:40:08.996Z,79.71
2023-05-05T19:42:36.864Z,79.22
2023-05-05T19:45:03.766Z,79.39
2023-05-05T19:47:30.436Z,79.75
2023-05-05T19:49:57.028Z,80.71
2023-05-05T19:52:23.557Z,78.83
2023-05-05T19:54:50.281Z,80.78
2023-05-05T19:57:18.062Z,81.25
2023-05-05T19:59:45.891Z,79.69
2023-05-05T20:02:12.348Z,80.10
2023-05-05T20:04:41.913Z,80.75
2023-05-05T20:07:08.583Z,83.37
2023-05-05T20:09:35.051Z,85.28
2023-05-05T20:12:01.451Z,85.57
2023-05-05T20:14:27.885Z,85.25
2023-05-05T20:16:55.685Z,87.11
2023-05-05T20:19:22.179Z,88.19
2023-05-05T20:21:48.631Z,88.24
2023-05-05T20:24:15.050Z,88.74
2023-05-05T20:26:41.446Z,87.18
2023-05-05T20:29:07.907Z,86.99
2023-05-05T20:31:34.421Z,87.20
2023-05-05T20:34:02.285Z,88.11
2023-05-05T20:36:28.800Z,88.43
2023-05-05T20:38:55.278Z,88.13
2023-05-05T20:41:21.722Z,88.60
2023-05-05T20:43:48.188Z,88.67
2023-05-05T20:46:14.637Z,89.27
2023-05-05T20:48:42.975Z,89.38
2023-05-05T20:51:11.009Z,89.36
2023-05-05T20:53:37.478Z,89.67
2023-05-05T20:56:05.702Z,88.16
2023-05-05T20:58:32.820Z,91.15
2023-05-05T21:00:59.642Z,89.98
2023-05-05T21:03:26.125Z,90.13
2023-05-05T21:05:58.077Z,91.52
2023-05-05T21:08:32.149Z,90.21
2023-05-05T21:11:14.556Z,91.47
2023-05-05T21:13:49.376Z,91.09
2023-05-05T21:16:18.239Z,91.36
2023-05-05T21:18:44.793Z,91.01
2023-05-05T21:21:11.328Z,91.26
2023-05-05T21:23:41.933Z,91.92
2023-05-05T21:26:08.363Z,91.11
2023-05-05T21:28:37.519Z,91.36
2023-05-05T21:31:21.266Z,91.83
2023-05-05T21:33:48.584Z,91.80
2023-05-05T21:36:15.054Z,92.98
2023-05-05T21:38:43.049Z,93.53
2023-05-05T21:41:09.560Z,93.90
2023-05-05T21:43:36.075Z,94.31
2023-05-05T21:46:04.602Z,94.11
2023-05-05T21:48:31.532Z,93.80
2023-05-05T21:50:58.029Z,94.37
2023-05-05T21:53:24.588Z,94.72
2023-05-05T21:55:54.364Z,92.95
2023-05-05T21:58:20.829Z,92.81
2023-05-05T22:00:48.785Z,93.08
2023-05-05T22:03:15.256Z,92.20
2023-05-05T22:05:41.754Z,93.20
2023-05-05T22:08:08.180Z,93.99
2023-05-05T22:10:34.654Z,93.59
2023-05-05T22:13:02.470Z,92.82
2023-05-05T22:15:35.716Z,92.71
2023-05-05T22:18:09.486Z,92.23
2023-05-05T22:20:36.997Z,93.41
2023-05-05T22:23:03.451Z,92.75
2023-05-05T22:25:29.837Z,93.71
2023-05-05T22:27:56.336Z,93.48
2023-05-05T22:30:24.089Z,92.44
2023-05-05T22:32:50.553Z,92.84
2023-05-05T22:35:17.004Z,93.00
2023-05-05T22:37:43.638Z,93.09
2023-05-05T22:40:10.838Z,93.25
2023-05-05T22:42:37.293Z,93.78
2023-05-05T22:45:04.108Z,92.75
2023-05-05T22:47:31.845Z,93.88
2023-05-05T22:49:58.274Z,93.06
2023-05-05T22:52:24.656Z,93.93
2023-05-05T22:54:51.088Z,94.16
2023-05-05T22:57:17.505Z,93.96
2023-05-05T22:59:43.900Z,94.13
2023-05-05T23:02:10.466Z,94.74
2023-05-05T23:04:38.229Z,95.01
2023-05-05T23:07:04.671Z,94.94
2023-05-05T23:09:31.128Z,94.84
2023-05-05T23:11:57.600Z,94.19
2023-05-05T23:14:24.212Z,94.37
2023-05-05T23:16:50.856Z,94.26
2023-05-05T23:19:17.319Z,94.76
2023-05-05T23:21:52.480Z,94.04
2023-05-05T23:24:19.575Z,94.39
2023-05-05T23:26:46.010Z,95.16
2023-05-05T23:29:12.887Z,95.53
2023-05-05T23:31:39.390Z,95.64
2023-05-05T23:34:05.901Z,94.79
2023-05-05T23:36:32.480Z,94.85
2023-05-05T23:39:00.350Z,93.54
2023-05-05T23:41:26.850Z,93.52
2023-05-05T23:43:53.456Z,94.23
2023-05-05T23:46:20.135Z,93.33
2023-05-05T23:48:46.745Z,93.35
2023-05-05T23:51:13.328Z,94.17
2023-05-05T23:53:39.767Z,93.75
2023-05-05T23:56:08.416Z,93.66
2023-05-05T23:58:35.101Z,93.82
